sensor_id;sensor_type;location;lat;lon;timestamp;pressure;altitude;pressure_sealevel;temperature;humidity
21828;BME280;11076;47.942;11.804;2023-01-31T00:04:49;94913.69;;;0.85;96.41
21828;BME280;11076;47.942;11.804;2023-01-31T00:09:51;94917.44;;;0.83;96.58
21828;BME280;11076;47.942;11.804;2023-01-31T00:14:54;94930.59;;;0.83;96.60
21828;BME280;11076;47.942;11.804;2023-01-31T00:19:56;94913.00;;;0.83;96.61
21828;BME280;11076;47.942;11.804;2023-01-31T00:24:58;94920.06;;;0.83;96.47
21828;BME280;11076;47.942;11.804;2023-01-31T00:30:01;94923.09;;;0.88;96.32
21828;BME280;11076;47.942;11.804;2023-01-31T00:35:04;94930.84;;;0.89;96.33
21828;BME280;11076;47.942;11.804;2023-01-31T00:40:06;94927.53;;;0.87;95.71
21828;BME280;11076;47.942;11.804;2023-01-31T00:45:10;94945.00;;;0.88;95.76
21828;BME280;11076;47.942;11.804;2023-01-31T00:50:13;94918.34;;;0.91;95.21
21828;BME280;11076;47.942;11.804;2023-01-31T00:55:17;94919.94;;;0.84;96.67
21828;BME280;11076;47.942;11.804;2023-01-31T01:00:21;94942.81;;;0.84;96.00
21828;BME280;11076;47.942;11.804;2023-01-31T01:05:23;94933.38;;;0.81;97.06
21828;BME280;11076;47.942;11.804;2023-01-31T01:10:27;94925.47;;;0.81;97.21
21828;BME280;11076;47.942;11.804;2023-01-31T01:15:29;94942.53;;;0.77;97.45
21828;BME280;11076;47.942;11.804;2023-01-31T01:20:33;94918.56;;;0.80;96.94
21828;BME280;11076;47.942;11.804;2023-01-31T01:25:43;94930.38;;;0.76;97.45
21828;BME280;11076;47.942;11.804;2023-01-31T01:30:45;94943.34;;;0.77;97.54
21828;BME280;11076;47.942;11.804;2023-01-31T01:35:47;94939.09;;;0.76;98.07
21828;BME280;11076;47.942;11.804;2023-01-31T01:40:50;94932.16;;;0.75;97.33
21828;BME280;11076;47.942;11.804;2023-01-31T01:45:52;94937.28;;;0.77;97.71
21828;BME280;11076;47.942;11.804;2023-01-31T01:50:55;94932.00;;;0.77;97.47
21828;BME280;11076;47.942;11.804;2023-01-31T01:56:04;94939.53;;;0.72;97.89
21828;BME280;11076;47.942;11.804;2023-01-31T02:01:09;94947.56;;;0.70;98.04
21828;BME280;11076;47.942;11.804;2023-01-31T02:06:14;94932.91;;;0.68;97.93
21828;BME280;11076;47.942;11.804;2023-01-31T02:11:23;94948.53;;;0.69;98.20
21828;BME280;11076;47.942;11.804;2023-01-31T02:16:26;94951.31;;;0.68;97.69
21828;BME280;11076;47.942;11.804;2023-01-31T02:22:15;94958.53;;;0.66;97.93
21828;BME280;11076;47.942;11.804;2023-01-31T02:27:28;94981.63;;;0.72;97.35
21828;BME280;11076;47.942;11.804;2023-01-31T02:37:56;94982.91;;;0.68;97.61
21828;BME280;11076;47.942;11.804;2023-01-31T02:43:08;94991.91;;;0.65;97.84
21828;BME280;11076;47.942;11.804;2023-01-31T02:53:41;94982.50;;;0.63;97.61
21828;BME280;11076;47.942;11.804;2023-01-31T02:58:54;94985.25;;;0.61;98.28
21828;BME280;11076;47.942;11.804;2023-01-31T03:04:09;94989.97;;;0.57;97.45
21828;BME280;11076;47.942;11.804;2023-01-31T03:09:17;94994.53;;;0.55;97.45
21828;BME280;11076;47.942;11.804;2023-01-31T03:14:40;95010.06;;;0.58;96.88
21828;BME280;11076;47.942;11.804;2023-01-31T03:20:19;95017.28;;;0.56;96.83
21828;BME280;11076;47.942;11.804;2023-01-31T03:25:28;95019.34;;;0.53;97.10
21828;BME280;11076;47.942;11.804;2023-01-31T03:30:45;95022.28;;;0.50;96.50
21828;BME280;11076;47.942;11.804;2023-01-31T03:36:04;95035.03;;;0.45;96.35
21828;BME280;11076;47.942;11.804;2023-01-31T03:41:31;95029.19;;;0.41;96.28
21828;BME280;11076;47.942;11.804;2023-01-31T03:46:39;95038.66;;;0.34;95.78
21828;BME280;11076;47.942;11.804;2023-01-31T03:51:51;95037.81;;;0.24;96.41
21828;BME280;11076;47.942;11.804;2023-01-31T03:57:14;95039.47;;;-0.05;96.15
21828;BME280;11076;47.942;11.804;2023-01-31T04:02:22;95043.88;;;-0.25;96.86
21828;BME280;11076;47.942;11.804;2023-01-31T04:07:26;95046.78;;;-0.37;97.39
21828;BME280;11076;47.942;11.804;2023-01-31T04:12:29;95046.88;;;-0.58;98.03
21828;BME280;11076;47.942;11.804;2023-01-31T04:17:35;95045.97;;;-0.78;98.92
21828;BME280;11076;47.942;11.804;2023-01-31T04:22:38;95053.94;;;-0.90;99.54
21828;BME280;11076;47.942;11.804;2023-01-31T04:27:40;95065.13;;;-0.97;99.95
21828;BME280;11076;47.942;11.804;2023-01-31T04:32:43;95054.88;;;-1.01;100.00
21828;BME280;11076;47.942;11.804;2023-01-31T04:37:45;95062.75;;;-1.01;100.00
21828;BME280;11076;47.942;11.804;2023-01-31T04:42:49;95070.97;;;-1.15;100.00
21828;BME280;11076;47.942;11.804;2023-01-31T04:47:52;95070.66;;;-1.22;100.00
21828;BME280;11076;47.942;11.804;2023-01-31T04:52:54;95067.91;;;-1.20;100.00
21828;BME280;11076;47.942;11.804;2023-01-31T04:57:57;95078.16;;;-1.17;100.00
21828;BME280;11076;47.942;11.804;2023-01-31T05:02:59;95087.56;;;-1.14;100.00
21828;BME280;11076;47.942;11.804;2023-01-31T05:08:02;95100.16;;;-1.08;100.00
21828;BME280;11076;47.942;11.804;2023-01-31T05:13:04;95118.22;;;-1.15;100.00
21828;BME280;11076;47.942;11.804;2023-01-31T05:18:07;95120.31;;;-1.09;100.00
21828;BME280;11076;47.942;11.804;2023-01-31T05:23:09;95112.63;;;-1.22;100.00
21828;BME280;11076;47.942;11.804;2023-01-31T05:28:12;95125.56;;;-1.30;100.00
21828;BME280;11076;47.942;11.804;2023-01-31T05:33:14;95122.13;;;-1.30;100.00
21828;BME280;11076;47.942;11.804;2023-01-31T05:38:16;95144.09;;;-1.31;100.00
21828;BME280;11076;47.942;11.804;2023-01-31T05:43:19;95136.34;;;-1.33;100.00
21828;BME280;11076;47.942;11.804;2023-01-31T05:48:21;95147.66;;;-1.32;100.00
21828;BME280;11076;47.942;11.804;2023-01-31T05:53:24;95147.41;;;-1.08;100.00
21828;BME280;11076;47.942;11.804;2023-01-31T05:58:26;95132.69;;;-0.90;100.00
21828;BME280;11076;47.942;11.804;2023-01-31T06:03:28;95139.41;;;-0.76;99.99
21828;BME280;11076;47.942;11.804;2023-01-31T06:08:31;95141.25;;;-0.67;99.31
21828;BME280;11076;47.942;11.804;2023-01-31T06:13:33;95140.31;;;-0.66;98.80
21828;BME280;11076;47.942;11.804;2023-01-31T06:18:36;95148.31;;;-0.67;97.99
21828;BME280;11076;47.942;11.804;2023-01-31T06:23:38;95142.22;;;-0.68;98.14
21828;BME280;11076;47.942;11.804;2023-01-31T06:28:41;95150.16;;;-0.48;96.25
21828;BME280;11076;47.942;11.804;2023-01-31T06:33:45;95140.34;;;-0.46;96.14
21828;BME280;11076;47.942;11.804;2023-01-31T06:38:52;95138.84;;;-0.49;95.96
21828;BME280;11076;47.942;11.804;2023-01-31T06:43:55;95131.22;;;-0.52;95.67
21828;BME280;11076;47.942;11.804;2023-01-31T06:48:57;95135.06;;;-0.66;95.93
21828;BME280;11076;47.942;11.804;2023-01-31T06:54:00;95147.75;;;-0.71;95.77
21828;BME280;11076;47.942;11.804;2023-01-31T06:59:02;95153.75;;;-0.80;96.17
21828;BME280;11076;47.942;11.804;2023-01-31T07:04:05;95153.00;;;-0.71;96.74
21828;BME280;11076;47.942;11.804;2023-01-31T07:09:07;95160.25;;;-0.53;95.88
21828;BME280;11076;47.942;11.804;2023-01-31T07:14:09;95171.41;;;-0.30;94.88
21828;BME280;11076;47.942;11.804;2023-01-31T07:19:12;95170.91;;;-0.05;93.80
21828;BME280;11076;47.942;11.804;2023-01-31T07:24:15;95163.34;;;0.02;92.03
21828;BME280;11076;47.942;11.804;2023-01-31T07:29:17;95151.03;;;0.12;92.12
21828;BME280;11076;47.942;11.804;2023-01-31T07:34:20;95164.34;;;0.21;89.64
21828;BME280;11076;47.942;11.804;2023-01-31T07:39:24;95161.41;;;0.24;90.07
21828;BME280;11076;47.942;11.804;2023-01-31T07:44:26;95151.31;;;0.19;90.13
21828;BME280;11076;47.942;11.804;2023-01-31T07:49:28;95155.19;;;0.25;89.50
21828;BME280;11076;47.942;11.804;2023-01-31T07:54:31;95153.81;;;0.21;88.58
21828;BME280;11076;47.942;11.804;2023-01-31T07:59:33;95160.19;;;0.28;87.92
21828;BME280;11076;47.942;11.804;2023-01-31T08:04:35;95161.44;;;0.43;87.14
21828;BME280;11076;47.942;11.804;2023-01-31T08:09:38;95165.19;;;0.70;87.23
21828;BME280;11076;47.942;11.804;2023-01-31T08:14:40;95174.03;;;1.08;86.73
21828;BME280;11076;47.942;11.804;2023-01-31T08:19:42;95176.41;;;1.48;85.94
21828;BME280;11076;47.942;11.804;2023-01-31T08:24:45;95171.91;;;1.96;84.72
21828;BME280;11076;47.942;11.804;2023-01-31T08:29:47;95168.19;;;1.89;81.46
21828;BME280;11076;47.942;11.804;2023-01-31T08:34:50;95155.81;;;1.99;78.77
21828;BME280;11076;47.942;11.804;2023-01-31T08:39:52;95161.22;;;2.43;77.80
21828;BME280;11076;47.942;11.804;2023-01-31T08:44:54;95175.41;;;2.60;76.47
21828;BME280;11076;47.942;11.804;2023-01-31T08:49:57;95161.16;;;2.53;76.14
21828;BME280;11076;47.942;11.804;2023-01-31T08:54:59;95164.94;;;2.23;75.95
21828;BME280;11076;47.942;11.804;2023-01-31T09:00:02;95160.31;;;2.07;77.27
21828;BME280;11076;47.942;11.804;2023-01-31T09:05:05;95160.63;;;2.04;77.97
21828;BME280;11076;47.942;11.804;2023-01-31T09:10:09;95160.19;;;2.08;77.89
21828;BME280;11076;47.942;11.804;2023-01-31T09:15:12;95149.78;;;2.07;78.41
21828;BME280;11076;47.942;11.804;2023-01-31T09:20:15;95161.31;;;2.06;77.10
21828;BME280;11076;47.942;11.804;2023-01-31T09:25:17;95148.28;;;2.22;77.85
21828;BME280;11076;47.942;11.804;2023-01-31T09:30:24;95142.06;;;2.41;76.79
21828;BME280;11076;47.942;11.804;2023-01-31T09:35:26;95127.06;;;2.59;74.93
21828;BME280;11076;47.942;11.804;2023-01-31T09:40:32;95129.22;;;2.82;73.88
21828;BME280;11076;47.942;11.804;2023-01-31T09:45:36;95147.09;;;2.88;74.18
21828;BME280;11076;47.942;11.804;2023-01-31T09:50:45;95151.56;;;2.70;73.65
21828;BME280;11076;47.942;11.804;2023-01-31T10:01:23;95154.38;;;2.94;74.33
21828;BME280;11076;47.942;11.804;2023-01-31T10:06:54;95156.69;;;2.89;73.51
21828;BME280;11076;47.942;11.804;2023-01-31T10:12:14;95148.25;;;2.68;72.39
21828;BME280;11076;47.942;11.804;2023-01-31T10:17:25;95147.69;;;2.28;73.04
21828;BME280;11076;47.942;11.804;2023-01-31T10:22:38;95136.03;;;2.67;71.10
21828;BME280;11076;47.942;11.804;2023-01-31T10:27:49;95138.31;;;3.32;68.25
21828;BME280;11076;47.942;11.804;2023-01-31T10:32:59;95125.38;;;4.40;66.36
21828;BME280;11076;47.942;11.804;2023-01-31T10:38:15;95117.38;;;4.24;65.23
21828;BME280;11076;47.942;11.804;2023-01-31T10:43:35;95097.75;;;3.92;66.69
21828;BME280;11076;47.942;11.804;2023-01-31T10:48:43;95094.19;;;4.09;66.12
21828;BME280;11076;47.942;11.804;2023-01-31T10:59:09;95093.84;;;3.96;66.74
21828;BME280;11076;47.942;11.804;2023-01-31T11:04:54;95087.25;;;4.16;67.14
21828;BME280;11076;47.942;11.804;2023-01-31T11:09:53;95088.13;;;3.74;67.01
21828;BME280;11076;47.942;11.804;2023-01-31T11:15:17;95074.94;;;3.83;66.98
21828;BME280;11076;47.942;11.804;2023-01-31T11:20:29;95074.59;;;3.86;66.80
21828;BME280;11076;47.942;11.804;2023-01-31T11:25:33;95075.63;;;3.93;66.49
21828;BME280;11076;47.942;11.804;2023-01-31T11:30:38;95071.03;;;4.11;66.59
21828;BME280;11076;47.942;11.804;2023-01-31T11:35:50;95066.09;;;4.25;65.47
21828;BME280;11076;47.942;11.804;2023-01-31T11:46:37;95038.91;;;3.90;66.61
21828;BME280;11076;47.942;11.804;2023-01-31T11:51:41;95032.00;;;4.05;67.55
21828;BME280;11076;47.942;11.804;2023-01-31T11:56:46;95017.41;;;3.93;66.45
21828;BME280;11076;47.942;11.804;2023-01-31T12:01:52;95011.50;;;4.24;67.96
21828;BME280;11076;47.942;11.804;2023-01-31T12:07:04;94987.53;;;4.50;67.17
21828;BME280;11076;47.942;11.804;2023-01-31T12:12:22;94971.78;;;4.48;67.02
21828;BME280;11076;47.942;11.804;2023-01-31T12:17:28;94966.84;;;4.37;66.31
21828;BME280;11076;47.942;11.804;2023-01-31T12:39:13;94951.38;;;4.82;65.43
21828;BME280;11076;47.942;11.804;2023-01-31T13:01:10;94947.19;;;5.04;65.29
21828;BME280;11076;47.942;11.804;2023-01-31T13:05:51;94941.97;;;4.71;65.34
21828;BME280;11076;47.942;11.804;2023-01-31T13:11:18;94949.31;;;4.36;66.09
21828;BME280;11076;47.942;11.804;2023-01-31T13:16:29;94925.16;;;4.31;67.13
21828;BME280;11076;47.942;11.804;2023-01-31T13:21:39;94918.81;;;4.56;65.37
21828;BME280;11076;47.942;11.804;2023-01-31T13:26:47;94918.28;;;4.69;65.20
21828;BME280;11076;47.942;11.804;2023-01-31T13:32:15;94895.44;;;5.47;64.27
21828;BME280;11076;47.942;11.804;2023-01-31T13:37:22;94900.78;;;5.39;62.51
21828;BME280;11076;47.942;11.804;2023-01-31T13:42:28;94903.78;;;5.36;63.01
21828;BME280;11076;47.942;11.804;2023-01-31T13:47:47;94892.66;;;5.09;62.92
21828;BME280;11076;47.942;11.804;2023-01-31T13:52:53;94875.78;;;5.02;63.33
21828;BME280;11076;47.942;11.804;2023-01-31T13:58:03;94871.38;;;4.86;62.59
21828;BME280;11076;47.942;11.804;2023-01-31T14:03:17;94864.84;;;4.57;62.45
21828;BME280;11076;47.942;11.804;2023-01-31T14:14:25;94877.50;;;4.31;63.38
21828;BME280;11076;47.942;11.804;2023-01-31T14:40:39;94885.09;;;3.44;64.97
21828;BME280;11076;47.942;11.804;2023-01-31T14:51:19;94863.13;;;3.35;66.10
21828;BME280;11076;47.942;11.804;2023-01-31T14:56:53;94863.28;;;3.33;66.11
21828;BME280;11076;47.942;11.804;2023-01-31T15:01:56;94853.72;;;3.32;65.60
21828;BME280;11076;47.942;11.804;2023-01-31T15:06:59;94854.00;;;3.21;65.84
21828;BME280;11076;47.942;11.804;2023-01-31T15:12:01;94836.31;;;3.13;65.66
21828;BME280;11076;47.942;11.804;2023-01-31T15:17:11;94833.31;;;3.08;65.74
21828;BME280;11076;47.942;11.804;2023-01-31T15:22:37;94860.22;;;2.95;65.48
21828;BME280;11076;47.942;11.804;2023-01-31T15:27:42;94858.53;;;2.86;66.15
21828;BME280;11076;47.942;11.804;2023-01-31T15:32:58;94858.19;;;2.81;66.49
21828;BME280;11076;47.942;11.804;2023-01-31T15:38:19;94854.88;;;2.79;66.94
21828;BME280;11076;47.942;11.804;2023-01-31T15:43:23;94846.28;;;2.77;65.81
21828;BME280;11076;47.942;11.804;2023-01-31T15:48:26;94853.06;;;2.79;62.77
21828;BME280;11076;47.942;11.804;2023-01-31T15:53:28;94862.59;;;2.72;62.33
21828;BME280;11076;47.942;11.804;2023-01-31T15:58:36;94864.25;;;2.73;61.72
21828;BME280;11076;47.942;11.804;2023-01-31T16:03:41;94846.28;;;2.69;62.29
21828;BME280;11076;47.942;11.804;2023-01-31T16:08:51;94859.47;;;2.69;61.84
21828;BME280;11076;47.942;11.804;2023-01-31T16:13:55;94839.16;;;2.69;62.34
21828;BME280;11076;47.942;11.804;2023-01-31T16:18:58;94840.66;;;2.72;61.28
21828;BME280;11076;47.942;11.804;2023-01-31T16:29:16;94825.47;;;2.74;60.37
21828;BME280;11076;47.942;11.804;2023-01-31T16:39:36;94848.28;;;2.75;59.61
21828;BME280;11076;47.942;11.804;2023-01-31T16:44:41;94882.28;;;2.86;57.80
21828;BME280;11076;47.942;11.804;2023-01-31T16:49:44;94878.84;;;2.86;58.34
21828;BME280;11076;47.942;11.804;2023-01-31T16:54:50;94861.81;;;2.80;58.50
21828;BME280;11076;47.942;11.804;2023-01-31T16:59:53;94863.25;;;2.74;59.34
21828;BME280;11076;47.942;11.804;2023-01-31T17:05:01;94878.13;;;2.75;59.50
21828;BME280;11076;47.942;11.804;2023-01-31T17:10:17;94876.81;;;2.79;59.05
21828;BME280;11076;47.942;11.804;2023-01-31T17:15:23;94876.00;;;2.79;59.44
21828;BME280;11076;47.942;11.804;2023-01-31T17:20:25;94880.28;;;2.80;58.16
21828;BME280;11076;47.942;11.804;2023-01-31T17:25:31;94873.69;;;2.84;58.34
21828;BME280;11076;47.942;11.804;2023-01-31T17:30:40;94864.44;;;2.80;58.32
21828;BME280;11076;47.942;11.804;2023-01-31T17:35:46;94855.25;;;2.92;57.62
21828;BME280;11076;47.942;11.804;2023-01-31T17:40:48;94867.44;;;2.85;58.55
21828;BME280;11076;47.942;11.804;2023-01-31T17:45:51;94866.47;;;2.94;56.86
21828;BME280;11076;47.942;11.804;2023-01-31T17:50:54;94883.00;;;2.96;56.70
21828;BME280;11076;47.942;11.804;2023-01-31T17:55:56;94889.63;;;3.01;56.61
21828;BME280;11076;47.942;11.804;2023-01-31T18:00:59;94887.28;;;2.97;57.61
21828;BME280;11076;47.942;11.804;2023-01-31T18:06:02;94879.69;;;2.94;57.52
21828;BME280;11076;47.942;11.804;2023-01-31T18:11:11;94887.97;;;2.99;57.84
21828;BME280;11076;47.942;11.804;2023-01-31T18:16:17;94901.19;;;3.08;57.57
21828;BME280;11076;47.942;11.804;2023-01-31T18:21:22;94915.22;;;3.08;58.36
21828;BME280;11076;47.942;11.804;2023-01-31T18:26:25;94917.19;;;3.06;58.94
21828;BME280;11076;47.942;11.804;2023-01-31T18:31:27;94906.81;;;3.05;59.11
21828;BME280;11076;47.942;11.804;2023-01-31T18:36:30;94905.47;;;3.01;60.34
21828;BME280;11076;47.942;11.804;2023-01-31T18:41:32;94905.47;;;3.01;60.50
21828;BME280;11076;47.942;11.804;2023-01-31T18:46:35;94913.41;;;3.01;60.76
21828;BME280;11076;47.942;11.804;2023-01-31T18:51:37;94905.47;;;3.01;62.03
21828;BME280;11076;47.942;11.804;2023-01-31T18:56:40;94917.69;;;3.02;62.91
21828;BME280;11076;47.942;11.804;2023-01-31T19:01:42;94898.88;;;3.05;62.80
21828;BME280;11076;47.942;11.804;2023-01-31T19:06:45;94925.59;;;3.02;63.28
21828;BME280;11076;47.942;11.804;2023-01-31T19:11:48;94926.28;;;3.04;63.18
21828;BME280;11076;47.942;11.804;2023-01-31T19:16:50;94909.91;;;3.00;63.61
21828;BME280;11076;47.942;11.804;2023-01-31T19:21:52;94926.94;;;3.06;62.23
21828;BME280;11076;47.942;11.804;2023-01-31T19:26:55;94933.38;;;3.03;62.13
21828;BME280;11076;47.942;11.804;2023-01-31T19:31:57;94911.75;;;3.08;61.12
21828;BME280;11076;47.942;11.804;2023-01-31T19:37:00;94914.75;;;3.13;60.26
21828;BME280;11076;47.942;11.804;2023-01-31T19:42:02;94920.88;;;3.13;59.54
21828;BME280;11076;47.942;11.804;2023-01-31T19:47:05;94900.25;;;3.17;58.47
21828;BME280;11076;47.942;11.804;2023-01-31T19:52:08;94897.09;;;3.22;57.61
21828;BME280;11076;47.942;11.804;2023-01-31T19:57:10;94907.34;;;3.16;58.33
21828;BME280;11076;47.942;11.804;2023-01-31T20:02:13;94928.66;;;3.15;58.53
21828;BME280;11076;47.942;11.804;2023-01-31T20:07:15;94911.47;;;3.11;58.87
21828;BME280;11076;47.942;11.804;2023-01-31T20:12:17;94898.41;;;3.09;59.33
21828;BME280;11076;47.942;11.804;2023-01-31T20:17:20;94892.63;;;3.14;58.87
21828;BME280;11076;47.942;11.804;2023-01-31T20:22:22;94878.59;;;3.13;58.74
21828;BME280;11076;47.942;11.804;2023-01-31T20:27:25;94879.41;;;3.14;59.75
21828;BME280;11076;47.942;11.804;2023-01-31T20:32:28;94891.00;;;3.21;59.11
21828;BME280;11076;47.942;11.804;2023-01-31T20:37:30;94917.28;;;3.23;59.90
21828;BME280;11076;47.942;11.804;2023-01-31T20:42:34;94896.28;;;3.21;60.31
21828;BME280;11076;47.942;11.804;2023-01-31T20:47:36;94880.28;;;3.31;59.63
21828;BME280;11076;47.942;11.804;2023-01-31T20:52:39;94897.25;;;3.20;62.21
21828;BME280;11076;47.942;11.804;2023-01-31T20:57:41;94885.03;;;3.11;64.27
21828;BME280;11076;47.942;11.804;2023-01-31T21:02:44;94913.22;;;3.02;65.12
21828;BME280;11076;47.942;11.804;2023-01-31T21:07:47;94896.56;;;3.02;64.90
21828;BME280;11076;47.942;11.804;2023-01-31T21:12:49;94899.84;;;3.04;64.53
21828;BME280;11076;47.942;11.804;2023-01-31T21:17:51;94888.66;;;3.10;63.29
21828;BME280;11076;47.942;11.804;2023-01-31T21:22:54;94885.19;;;3.09;63.01
21828;BME280;11076;47.942;11.804;2023-01-31T21:27:56;94924.31;;;3.14;62.78
21828;BME280;11076;47.942;11.804;2023-01-31T21:32:58;94874.47;;;3.11;62.73
21828;BME280;11076;47.942;11.804;2023-01-31T21:38:01;94910.13;;;3.07;63.67
21828;BME280;11076;47.942;11.804;2023-01-31T21:43:03;94892.72;;;2.96;64.83
21828;BME280;11076;47.942;11.804;2023-01-31T21:48:08;94884.34;;;3.01;63.06
21828;BME280;11076;47.942;11.804;2023-01-31T21:53:29;94872.28;;;3.06;62.76
21828;BME280;11076;47.942;11.804;2023-01-31T21:58:32;94849.19;;;3.08;61.81
21828;BME280;11076;47.942;11.804;2023-01-31T22:03:36;94859.94;;;3.07;61.94
21828;BME280;11076;47.942;11.804;2023-01-31T22:08:39;94846.38;;;3.10;62.04
21828;BME280;11076;47.942;11.804;2023-01-31T22:13:43;94848.03;;;3.11;61.30
21828;BME280;11076;47.942;11.804;2023-01-31T22:18:47;94849.69;;;3.12;62.09
21828;BME280;11076;47.942;11.804;2023-01-31T22:23:52;94836.31;;;3.13;61.97
21828;BME280;11076;47.942;11.804;2023-01-31T22:28:57;94825.59;;;3.15;61.78
21828;BME280;11076;47.942;11.804;2023-01-31T22:34:00;94820.63;;;3.12;62.51
21828;BME280;11076;47.942;11.804;2023-01-31T22:39:02;94824.72;;;3.06;63.23
21828;BME280;11076;47.942;11.804;2023-01-31T22:44:05;94834.47;;;3.06;63.83
21828;BME280;11076;47.942;11.804;2023-01-31T22:49:07;94821.28;;;3.06;64.43
21828;BME280;11076;47.942;11.804;2023-01-31T22:54:10;94815.47;;;3.02;65.25
21828;BME280;11076;47.942;11.804;2023-01-31T22:59:12;94815.66;;;3.01;65.60
21828;BME280;11076;47.942;11.804;2023-01-31T23:04:14;94817.00;;;3.05;64.92
21828;BME280;11076;47.942;11.804;2023-01-31T23:09:18;94829.69;;;3.01;65.41
21828;BME280;11076;47.942;11.804;2023-01-31T23:14:20;94837.78;;;3.08;65.08
21828;BME280;11076;47.942;11.804;2023-01-31T23:19:22;94829.19;;;3.06;65.87
21828;BME280;11076;47.942;11.804;2023-01-31T23:24:25;94823.25;;;3.04;66.28
21828;BME280;11076;47.942;11.804;2023-01-31T23:29:27;94828.56;;;3.12;66.01
21828;BME280;11076;47.942;11.804;2023-01-31T23:34:29;94819.13;;;3.09;65.95
21828;BME280;11076;47.942;11.804;2023-01-31T23:39:32;94825.59;;;3.07;66.14
21828;BME280;11076;47.942;11.804;2023-01-31T23:44:34;94831.50;;;3.01;66.98
21828;BME280;11076;47.942;11.804;2023-01-31T23:49:36;94840.75;;;2.96;68.08
21828;BME280;11076;47.942;11.804;2023-01-31T23:54:39;94823.91;;;2.97;68.57
21828;BME280;11076;47.942;11.804;2023-01-31T23:59:41;94831.25;;;2.69;73.93
